sensor_id;sensor_type;location;lat;lon;timestamp;temperature;humidity
20827;DHT22;10574;52.508;13.236;2023-09-19T00:01:47;17.70;99.90
20827;DHT22;10574;52.508;13.236;2023-09-19T00:04:14;17.60;99.90
20827;DHT22;10574;52.508;13.236;2023-09-19T00:06:42;17.60;99.90
20827;DHT22;10574;52.508;13.236;2023-09-19T00:09:10;17.60;99.90
20827;DHT22;10574;52.508;13.236;2023-09-19T00:11:38;17.60;99.90
20827;DHT22;10574;52.508;13.236;2023-09-19T00:14:06;17.50;99.90
20827;DHT22;10574;52.508;13.236;2023-09-19T00:16:35;17.60;99.90
20827;DHT22;10574;52.508;13.236;2023-09-19T00:19:03;17.60;99.90
20827;DHT22;10574;52.508;13.236;2023-09-19T00:21:32;17.50;99.90
20827;DHT22;10574;52.508;13.236;2023-09-19T00:23:59;17.50;99.90
20827;DHT22;10574;52.508;13.236;2023-09-19T00:26:27;17.50;99.90
20827;DHT22;10574;52.508;13.236;2023-09-19T00:28:56;17.50;99.90
20827;DHT22;10574;52.508;13.236;2023-09-19T00:31:23;17.50;99.90
20827;DHT22;10574;52.508;13.236;2023-09-19T00:33:52;17.40;99.90
20827;DHT22;10574;52.508;13.236;2023-09-19T00:36:19;17.40;99.90
20827;DHT22;10574;52.508;13.236;2023-09-19T00:38:47;17.40;99.90
20827;DHT22;10574;52.508;13.236;2023-09-19T00:41:15;17.40;99.90
20827;DHT22;10574;52.508;13.236;2023-09-19T00:43:42;17.40;99.90
20827;DHT22;10574;52.508;13.236;2023-09-19T00:46:10;17.40;99.90
20827;DHT22;10574;52.508;13.236;2023-09-19T00:48:40;17.40;99.90
20827;DHT22;10574;52.508;13.236;2023-09-19T00:51:09;17.40;99.90
20827;DHT22;10574;52.508;13.236;2023-09-19T00:53:39;17.30;99.90
20827;DHT22;10574;52.508;13.236;2023-09-19T00:56:06;17.30;99.90
20827;DHT22;10574;52.508;13.236;2023-09-19T00:58:34;17.30;99.90
20827;DHT22;10574;52.508;13.236;2023-09-19T01:01:02;17.30;99.90
20827;DHT22;10574;52.508;13.236;2023-09-19T01:03:34;17.30;99.90
20827;DHT22;10574;52.508;13.236;2023-09-19T01:06:02;17.20;99.90
20827;DHT22;10574;52.508;13.236;2023-09-19T01:08:30;17.20;99.90
20827;DHT22;10574;52.508;13.236;2023-09-19T01:11:28;17.20;99.90
20827;DHT22;10574;52.508;13.236;2023-09-19T01:13:40;17.20;99.90
20827;DHT22;10574;52.508;13.236;2023-09-19T01:16:26;17.20;99.90
20827;DHT22;10574;52.508;13.236;2023-09-19T01:19:01;17.20;99.90
20827;DHT22;10574;52.508;13.236;2023-09-19T01:24:27;17.20;99.90
20827;DHT22;10574;52.508;13.236;2023-09-19T01:29:39;17.20;99.90
20827;DHT22;10574;52.508;13.236;2023-09-19T01:32:09;17.20;99.90
20827;DHT22;10574;52.508;13.236;2023-09-19T01:34:53;17.20;99.90
20827;DHT22;10574;52.508;13.236;2023-09-19T01:37:22;17.20;99.90
20827;DHT22;10574;52.508;13.236;2023-09-19T01:40:07;17.20;99.90
20827;DHT22;10574;52.508;13.236;2023-09-19T01:51:37;17.20;99.90
20827;DHT22;10574;52.508;13.236;2023-09-19T01:54:09;17.20;99.90
20827;DHT22;10574;52.508;13.236;2023-09-19T01:57:09;17.20;99.90
20827;DHT22;10574;52.508;13.236;2023-09-19T01:59:41;17.20;99.90
20827;DHT22;10574;52.508;13.236;2023-09-19T02:02:09;17.10;99.90
20827;DHT22;10574;52.508;13.236;2023-09-19T02:04:39;17.10;99.90
20827;DHT22;10574;52.508;13.236;2023-09-19T02:07:08;17.10;99.90
20827;DHT22;10574;52.508;13.236;2023-09-19T02:09:37;17.10;99.90
20827;DHT22;10574;52.508;13.236;2023-09-19T02:12:08;17.10;99.90
20827;DHT22;10574;52.508;13.236;2023-09-19T02:14:37;17.10;99.90
20827;DHT22;10574;52.508;13.236;2023-09-19T02:17:05;17.10;99.90
20827;DHT22;10574;52.508;13.236;2023-09-19T02:19:35;17.00;99.90
20827;DHT22;10574;52.508;13.236;2023-09-19T02:22:05;17.00;99.90
20827;DHT22;10574;52.508;13.236;2023-09-19T02:24:36;17.00;99.90
20827;DHT22;10574;52.508;13.236;2023-09-19T02:27:05;17.00;99.90
20827;DHT22;10574;52.508;13.236;2023-09-19T02:29:34;17.00;99.90
20827;DHT22;10574;52.508;13.236;2023-09-19T02:32:02;17.00;99.90
20827;DHT22;10574;52.508;13.236;2023-09-19T02:34:29;17.00;99.90
20827;DHT22;10574;52.508;13.236;2023-09-19T02:36:57;17.00;99.90
20827;DHT22;10574;52.508;13.236;2023-09-19T02:39:25;17.00;99.90
20827;DHT22;10574;52.508;13.236;2023-09-19T02:41:52;17.00;99.90
20827;DHT22;10574;52.508;13.236;2023-09-19T02:44:20;17.00;99.90
20827;DHT22;10574;52.508;13.236;2023-09-19T02:46:49;17.00;99.90
20827;DHT22;10574;52.508;13.236;2023-09-19T02:49:17;17.00;99.90
20827;DHT22;10574;52.508;13.236;2023-09-19T02:51:45;17.00;99.90
20827;DHT22;10574;52.508;13.236;2023-09-19T02:54:14;17.00;99.90
20827;DHT22;10574;52.508;13.236;2023-09-19T02:56:42;16.90;99.90
20827;DHT22;10574;52.508;13.236;2023-09-19T02:59:10;16.90;99.90
20827;DHT22;10574;52.508;13.236;2023-09-19T03:01:38;16.90;99.90
20827;DHT22;10574;52.508;13.236;2023-09-19T03:04:06;17.00;99.90
20827;DHT22;10574;52.508;13.236;2023-09-19T03:06:35;17.00;99.90
20827;DHT22;10574;52.508;13.236;2023-09-19T03:09:02;17.10;99.90
20827;DHT22;10574;52.508;13.236;2023-09-19T03:11:32;17.10;99.90
20827;DHT22;10574;52.508;13.236;2023-09-19T03:13:59;17.10;99.90
20827;DHT22;10574;52.508;13.236;2023-09-19T03:16:27;17.20;99.90
20827;DHT22;10574;52.508;13.236;2023-09-19T03:18:55;17.20;99.90
20827;DHT22;10574;52.508;13.236;2023-09-19T03:21:22;17.20;99.90
20827;DHT22;10574;52.508;13.236;2023-09-19T03:23:50;17.30;99.90
20827;DHT22;10574;52.508;13.236;2023-09-19T03:26:18;17.30;99.90
20827;DHT22;10574;52.508;13.236;2023-09-19T03:28:46;17.30;99.90
20827;DHT22;10574;52.508;13.236;2023-09-19T03:31:13;17.30;99.90
20827;DHT22;10574;52.508;13.236;2023-09-19T03:33:42;17.30;99.90
20827;DHT22;10574;52.508;13.236;2023-09-19T03:36:10;17.30;99.90
20827;DHT22;10574;52.508;13.236;2023-09-19T03:38:40;17.30;99.90
20827;DHT22;10574;52.508;13.236;2023-09-19T03:41:07;17.30;99.90
20827;DHT22;10574;52.508;13.236;2023-09-19T03:43:36;17.30;99.90
20827;DHT22;10574;52.508;13.236;2023-09-19T03:46:04;17.30;99.90
20827;DHT22;10574;52.508;13.236;2023-09-19T03:48:31;17.30;99.90
20827;DHT22;10574;52.508;13.236;2023-09-19T03:51:00;17.20;99.90
20827;DHT22;10574;52.508;13.236;2023-09-19T03:53:27;17.20;99.90
20827;DHT22;10574;52.508;13.236;2023-09-19T03:55:55;17.20;99.90
20827;DHT22;10574;52.508;13.236;2023-09-19T03:58:23;17.20;99.90
20827;DHT22;10574;52.508;13.236;2023-09-19T04:00:55;17.10;99.90
20827;DHT22;10574;52.508;13.236;2023-09-19T04:03:24;17.20;99.90
20827;DHT22;10574;52.508;13.236;2023-09-19T04:05:53;17.10;99.90
20827;DHT22;10574;52.508;13.236;2023-09-19T04:08:22;17.10;99.90
20827;DHT22;10574;52.508;13.236;2023-09-19T04:10:50;17.10;99.90
20827;DHT22;10574;52.508;13.236;2023-09-19T04:13:19;17.10;99.90
20827;DHT22;10574;52.508;13.236;2023-09-19T04:15:46;17.10;99.90
20827;DHT22;10574;52.508;13.236;2023-09-19T04:18:14;17.10;99.90
20827;DHT22;10574;52.508;13.236;2023-09-19T04:20:41;17.10;99.90
20827;DHT22;10574;52.508;13.236;2023-09-19T04:23:10;17.10;99.90
20827;DHT22;10574;52.508;13.236;2023-09-19T04:25:40;17.00;99.90
20827;DHT22;10574;52.508;13.236;2023-09-19T04:28:08;17.00;99.90
20827;DHT22;10574;52.508;13.236;2023-09-19T04:30:37;16.90;99.90
20827;DHT22;10574;52.508;13.236;2023-09-19T04:33:07;17.00;99.90
20827;DHT22;10574;52.508;13.236;2023-09-19T04:35:35;16.90;99.90
20827;DHT22;10574;52.508;13.236;2023-09-19T04:38:02;16.90;99.90
20827;DHT22;10574;52.508;13.236;2023-09-19T04:40:31;16.90;99.90
20827;DHT22;10574;52.508;13.236;2023-09-19T04:43:00;16.90;99.90
20827;DHT22;10574;52.508;13.236;2023-09-19T04:45:28;16.80;99.90
20827;DHT22;10574;52.508;13.236;2023-09-19T04:47:56;16.80;99.90
20827;DHT22;10574;52.508;13.236;2023-09-19T04:50:24;16.80;99.90
20827;DHT22;10574;52.508;13.236;2023-09-19T04:52:53;16.80;99.90
20827;DHT22;10574;52.508;13.236;2023-09-19T04:55:21;16.80;99.90
20827;DHT22;10574;52.508;13.236;2023-09-19T04:57:50;16.80;99.90
20827;DHT22;10574;52.508;13.236;2023-09-19T05:00:20;16.80;99.90
20827;DHT22;10574;52.508;13.236;2023-09-19T05:02:51;16.70;99.90
20827;DHT22;10574;52.508;13.236;2023-09-19T05:05:19;16.70;99.90
20827;DHT22;10574;52.508;13.236;2023-09-19T05:07:47;16.60;99.90
20827;DHT22;10574;52.508;13.236;2023-09-19T05:10:15;16.60;99.90
20827;DHT22;10574;52.508;13.236;2023-09-19T05:12:45;16.60;99.90
20827;DHT22;10574;52.508;13.236;2023-09-19T05:15:15;16.60;99.90
20827;DHT22;10574;52.508;13.236;2023-09-19T05:17:51;16.60;99.90
20827;DHT22;10574;52.508;13.236;2023-09-19T05:20:23;16.60;99.90
20827;DHT22;10574;52.508;13.236;2023-09-19T05:23:06;16.60;99.90
20827;DHT22;10574;52.508;13.236;2023-09-19T05:25:41;16.60;99.90
20827;DHT22;10574;52.508;13.236;2023-09-19T05:28:11;16.60;99.90
20827;DHT22;10574;52.508;13.236;2023-09-19T05:30:44;16.60;99.90
20827;DHT22;10574;52.508;13.236;2023-09-19T05:33:12;16.70;99.90
20827;DHT22;10574;52.508;13.236;2023-09-19T05:35:42;16.60;99.90
20827;DHT22;10574;52.508;13.236;2023-09-19T05:38:11;16.60;99.90
20827;DHT22;10574;52.508;13.236;2023-09-19T05:40:40;16.60;99.90
20827;DHT22;10574;52.508;13.236;2023-09-19T05:43:10;16.60;99.90
20827;DHT22;10574;52.508;13.236;2023-09-19T05:45:40;16.60;99.90
20827;DHT22;10574;52.508;13.236;2023-09-19T05:48:13;16.60;99.90
20827;DHT22;10574;52.508;13.236;2023-09-19T05:50:45;16.60;99.90
20827;DHT22;10574;52.508;13.236;2023-09-19T05:53:16;16.60;99.90
20827;DHT22;10574;52.508;13.236;2023-09-19T05:55:45;16.60;99.90
20827;DHT22;10574;52.508;13.236;2023-09-19T05:58:14;16.60;99.90
20827;DHT22;10574;52.508;13.236;2023-09-19T06:00:44;16.60;99.90
20827;DHT22;10574;52.508;13.236;2023-09-19T06:03:13;16.60;99.90
20827;DHT22;10574;52.508;13.236;2023-09-19T06:05:41;16.70;99.90
20827;DHT22;10574;52.508;13.236;2023-09-19T06:08:09;16.70;99.90
20827;DHT22;10574;52.508;13.236;2023-09-19T06:10:37;16.70;99.90
20827;DHT22;10574;52.508;13.236;2023-09-19T06:13:05;16.70;99.90
20827;DHT22;10574;52.508;13.236;2023-09-19T06:15:32;16.70;99.90
20827;DHT22;10574;52.508;13.236;2023-09-19T06:18:02;16.80;99.90
20827;DHT22;10574;52.508;13.236;2023-09-19T06:20:31;16.80;99.90
20827;DHT22;10574;52.508;13.236;2023-09-19T06:22:59;16.80;99.90
20827;DHT22;10574;52.508;13.236;2023-09-19T06:25:28;16.90;99.90
20827;DHT22;10574;52.508;13.236;2023-09-19T06:27:56;16.90;99.90
20827;DHT22;10574;52.508;13.236;2023-09-19T06:30:24;17.00;99.90
20827;DHT22;10574;52.508;13.236;2023-09-19T06:32:57;17.10;99.90
20827;DHT22;10574;52.508;13.236;2023-09-19T06:35:25;17.10;99.90
20827;DHT22;10574;52.508;13.236;2023-09-19T06:37:53;17.10;99.90
20827;DHT22;10574;52.508;13.236;2023-09-19T06:40:20;17.20;99.90
20827;DHT22;10574;52.508;13.236;2023-09-19T06:42:50;17.30;99.90
20827;DHT22;10574;52.508;13.236;2023-09-19T06:45:19;17.40;99.90
20827;DHT22;10574;52.508;13.236;2023-09-19T06:47:49;17.60;99.90
20827;DHT22;10574;52.508;13.236;2023-09-19T06:50:21;17.70;99.90
20827;DHT22;10574;52.508;13.236;2023-09-19T06:52:54;17.80;99.90
20827;DHT22;10574;52.508;13.236;2023-09-19T06:55:23;18.00;99.90
20827;DHT22;10574;52.508;13.236;2023-09-19T06:57:51;18.10;99.90
20827;DHT22;10574;52.508;13.236;2023-09-19T07:00:21;18.20;99.90
20827;DHT22;10574;52.508;13.236;2023-09-19T07:03:01;18.40;99.90
20827;DHT22;10574;52.508;13.236;2023-09-19T07:05:31;18.40;99.90
20827;DHT22;10574;52.508;13.236;2023-09-19T07:08:02;18.50;99.90
20827;DHT22;10574;52.508;13.236;2023-09-19T07:10:31;18.60;99.90
20827;DHT22;10574;52.508;13.236;2023-09-19T07:13:07;18.80;99.90
20827;DHT22;10574;52.508;13.236;2023-09-19T07:15:39;18.80;99.90
20827;DHT22;10574;52.508;13.236;2023-09-19T07:18:08;18.80;99.90
20827;DHT22;10574;52.508;13.236;2023-09-19T07:20:37;18.70;99.90
20827;DHT22;10574;52.508;13.236;2023-09-19T07:23:05;18.70;99.90
20827;DHT22;10574;52.508;13.236;2023-09-19T07:25:34;18.70;99.90
20827;DHT22;10574;52.508;13.236;2023-09-19T07:28:02;18.70;99.90
20827;DHT22;10574;52.508;13.236;2023-09-19T07:30:30;18.70;99.90
20827;DHT22;10574;52.508;13.236;2023-09-19T07:32:58;18.50;99.90
20827;DHT22;10574;52.508;13.236;2023-09-19T07:35:25;18.50;99.90
20827;DHT22;10574;52.508;13.236;2023-09-19T07:37:55;18.50;99.90
20827;DHT22;10574;52.508;13.236;2023-09-19T07:40:24;18.60;99.90
20827;DHT22;10574;52.508;13.236;2023-09-19T07:42:53;18.50;99.90
20827;DHT22;10574;52.508;13.236;2023-09-19T07:45:21;18.50;99.90
20827;DHT22;10574;52.508;13.236;2023-09-19T07:47:50;18.60;99.90
20827;DHT22;10574;52.508;13.236;2023-09-19T07:50:19;18.80;99.90
20827;DHT22;10574;52.508;13.236;2023-09-19T07:52:50;19.00;99.90
20827;DHT22;10574;52.508;13.236;2023-09-19T07:55:20;19.20;99.90
20827;DHT22;10574;52.508;13.236;2023-09-19T07:57:49;19.20;99.90
20827;DHT22;10574;52.508;13.236;2023-09-19T08:00:17;19.20;99.90
20827;DHT22;10574;52.508;13.236;2023-09-19T08:02:45;19.20;99.90
20827;DHT22;10574;52.508;13.236;2023-09-19T08:05:14;19.20;99.90
20827;DHT22;10574;52.508;13.236;2023-09-19T08:07:45;19.10;99.90
20827;DHT22;10574;52.508;13.236;2023-09-19T08:10:17;19.10;99.90
20827;DHT22;10574;52.508;13.236;2023-09-19T08:12:47;19.00;99.90
20827;DHT22;10574;52.508;13.236;2023-09-19T08:15:19;18.90;99.90
20827;DHT22;10574;52.508;13.236;2023-09-19T08:17:48;18.80;99.90
20827;DHT22;10574;52.508;13.236;2023-09-19T08:20:16;18.70;99.90
20827;DHT22;10574;52.508;13.236;2023-09-19T08:22:51;18.70;99.90
20827;DHT22;10574;52.508;13.236;2023-09-19T08:27:46;18.70;99.90
20827;DHT22;10574;52.508;13.236;2023-09-19T08:30:16;18.80;99.90
20827;DHT22;10574;52.508;13.236;2023-09-19T08:32:46;18.90;99.90
20827;DHT22;10574;52.508;13.236;2023-09-19T08:35:14;19.00;99.90
20827;DHT22;10574;52.508;13.236;2023-09-19T08:37:43;19.00;99.90
20827;DHT22;10574;52.508;13.236;2023-09-19T08:40:13;19.00;99.90
20827;DHT22;10574;52.508;13.236;2023-09-19T08:45:17;19.30;99.90
20827;DHT22;10574;52.508;13.236;2023-09-19T08:47:56;19.20;99.90
20827;DHT22;10574;52.508;13.236;2023-09-19T08:50:28;19.10;99.90
20827;DHT22;10574;52.508;13.236;2023-09-19T08:53:01;19.20;99.90
20827;DHT22;10574;52.508;13.236;2023-09-19T08:55:31;19.40;99.90
20827;DHT22;10574;52.508;13.236;2023-09-19T08:58:03;19.40;99.90
20827;DHT22;10574;52.508;13.236;2023-09-19T09:00:36;19.30;99.90
20827;DHT22;10574;52.508;13.236;2023-09-19T09:03:05;19.40;99.90
20827;DHT22;10574;52.508;13.236;2023-09-19T09:05:40;19.50;99.90
20827;DHT22;10574;52.508;13.236;2023-09-19T09:08:15;19.70;99.90
20827;DHT22;10574;52.508;13.236;2023-09-19T09:10:45;19.80;99.90
20827;DHT22;10574;52.508;13.236;2023-09-19T09:13:15;19.90;99.90
20827;DHT22;10574;52.508;13.236;2023-09-19T09:15:46;20.10;99.90
20827;DHT22;10574;52.508;13.236;2023-09-19T09:18:18;20.20;99.90
20827;DHT22;10574;52.508;13.236;2023-09-19T09:20:50;20.40;99.90
20827;DHT22;10574;52.508;13.236;2023-09-19T09:23:22;20.10;99.90
20827;DHT22;10574;52.508;13.236;2023-09-19T09:25:53;20.10;99.90
20827;DHT22;10574;52.508;13.236;2023-09-19T09:28:25;19.90;99.90
20827;DHT22;10574;52.508;13.236;2023-09-19T09:30:55;20.00;99.90
20827;DHT22;10574;52.508;13.236;2023-09-19T09:33:52;20.10;99.90
20827;DHT22;10574;52.508;13.236;2023-09-19T09:36:19;20.10;99.90
20827;DHT22;10574;52.508;13.236;2023-09-19T09:38:52;20.30;99.90
20827;DHT22;10574;52.508;13.236;2023-09-19T09:41:35;20.30;99.90
20827;DHT22;10574;52.508;13.236;2023-09-19T09:43:59;20.40;99.90
20827;DHT22;10574;52.508;13.236;2023-09-19T09:46:31;20.50;99.90
20827;DHT22;10574;52.508;13.236;2023-09-19T09:49:25;20.60;99.90
20827;DHT22;10574;52.508;13.236;2023-09-19T09:52:04;20.70;99.90
20827;DHT22;10574;52.508;13.236;2023-09-19T09:54:35;20.80;99.90
20827;DHT22;10574;52.508;13.236;2023-09-19T09:57:05;20.60;99.90
20827;DHT22;10574;52.508;13.236;2023-09-19T09:59:55;20.50;99.90
20827;DHT22;10574;52.508;13.236;2023-09-19T10:02:34;20.60;99.90
20827;DHT22;10574;52.508;13.236;2023-09-19T10:07:51;20.80;99.90
20827;DHT22;10574;52.508;13.236;2023-09-19T10:10:37;21.00;99.90
20827;DHT22;10574;52.508;13.236;2023-09-19T10:13:08;21.10;99.90
20827;DHT22;10574;52.508;13.236;2023-09-19T10:15:38;21.20;99.90
20827;DHT22;10574;52.508;13.236;2023-09-19T10:18:10;21.20;99.90
20827;DHT22;10574;52.508;13.236;2023-09-19T10:20:38;21.20;99.90
20827;DHT22;10574;52.508;13.236;2023-09-19T10:23:09;21.30;99.90
20827;DHT22;10574;52.508;13.236;2023-09-19T10:25:41;21.50;99.90
20827;DHT22;10574;52.508;13.236;2023-09-19T10:28:11;21.80;99.90
20827;DHT22;10574;52.508;13.236;2023-09-19T10:30:44;22.10;99.90
20827;DHT22;10574;52.508;13.236;2023-09-19T10:33:17;21.80;99.90
20827;DHT22;10574;52.508;13.236;2023-09-19T10:35:49;21.80;99.90
20827;DHT22;10574;52.508;13.236;2023-09-19T10:38:23;21.90;99.90
20827;DHT22;10574;52.508;13.236;2023-09-19T10:40:53;22.00;99.50
20827;DHT22;10574;52.508;13.236;2023-09-19T10:43:25;22.10;96.60
20827;DHT22;10574;52.508;13.236;2023-09-19T10:45:52;22.00;95.50
20827;DHT22;10574;52.508;13.236;2023-09-19T10:48:21;21.90;96.70
20827;DHT22;10574;52.508;13.236;2023-09-19T10:53:24;21.60;97.50
20827;DHT22;10574;52.508;13.236;2023-09-19T10:55:55;21.40;97.30
20827;DHT22;10574;52.508;13.236;2023-09-19T10:58:28;21.20;97.00
20827;DHT22;10574;52.508;13.236;2023-09-19T11:01:00;21.10;99.30
20827;DHT22;10574;52.508;13.236;2023-09-19T11:03:29;21.10;99.20
20827;DHT22;10574;52.508;13.236;2023-09-19T11:06:04;21.10;99.60
20827;DHT22;10574;52.508;13.236;2023-09-19T11:08:52;21.20;97.70
20827;DHT22;10574;52.508;13.236;2023-09-19T11:11:46;21.10;98.60
20827;DHT22;10574;52.508;13.236;2023-09-19T11:30:49;21.00;99.90
20827;DHT22;10574;52.508;13.236;2023-09-19T11:33:24;21.10;98.00
20827;DHT22;10574;52.508;13.236;2023-09-19T11:36:08;21.40;96.50
20827;DHT22;10574;52.508;13.236;2023-09-19T11:46:25;21.80;95.70
20827;DHT22;10574;52.508;13.236;2023-09-19T11:48:54;21.70;95.70
20827;DHT22;10574;52.508;13.236;2023-09-19T11:51:24;21.60;97.10
20827;DHT22;10574;52.508;13.236;2023-09-19T11:53:57;21.50;95.90
20827;DHT22;10574;52.508;13.236;2023-09-19T11:56:28;21.40;95.80
20827;DHT22;10574;52.508;13.236;2023-09-19T11:58:57;21.40;95.90
20827;DHT22;10574;52.508;13.236;2023-09-19T12:01:33;21.30;95.30
20827;DHT22;10574;52.508;13.236;2023-09-19T12:04:02;21.20;96.90
20827;DHT22;10574;52.508;13.236;2023-09-19T12:06:31;21.10;96.00
20827;DHT22;10574;52.508;13.236;2023-09-19T12:08:59;21.10;94.50
20827;DHT22;10574;52.508;13.236;2023-09-19T12:11:31;21.00;95.20
20827;DHT22;10574;52.508;13.236;2023-09-19T12:14:02;21.10;95.40
20827;DHT22;10574;52.508;13.236;2023-09-19T12:16:31;21.10;94.70
20827;DHT22;10574;52.508;13.236;2023-09-19T12:19:23;21.10;94.00
20827;DHT22;10574;52.508;13.236;2023-09-19T12:21:31;21.30;95.10
20827;DHT22;10574;52.508;13.236;2023-09-19T12:26:40;21.10;94.70
20827;DHT22;10574;52.508;13.236;2023-09-19T12:29:20;21.20;94.00
20827;DHT22;10574;52.508;13.236;2023-09-19T12:31:50;21.30;95.30
20827;DHT22;10574;52.508;13.236;2023-09-19T12:34:25;21.20;94.20
20827;DHT22;10574;52.508;13.236;2023-09-19T12:37:04;21.30;94.20
20827;DHT22;10574;52.508;13.236;2023-09-19T12:39:34;21.40;95.00
20827;DHT22;10574;52.508;13.236;2023-09-19T12:42:02;21.50;95.20
20827;DHT22;10574;52.508;13.236;2023-09-19T12:44:32;21.50;94.10
20827;DHT22;10574;52.508;13.236;2023-09-19T12:47:09;21.50;95.20
20827;DHT22;10574;52.508;13.236;2023-09-19T12:52:25;21.50;94.00
20827;DHT22;10574;52.508;13.236;2023-09-19T12:54:52;21.40;94.40
20827;DHT22;10574;52.508;13.236;2023-09-19T12:57:24;21.40;93.40
20827;DHT22;10574;52.508;13.236;2023-09-19T12:59:53;21.30;94.80
20827;DHT22;10574;52.508;13.236;2023-09-19T13:02:21;21.20;94.80
20827;DHT22;10574;52.508;13.236;2023-09-19T13:04:56;21.20;95.00
20827;DHT22;10574;52.508;13.236;2023-09-19T13:07:44;21.10;94.30
20827;DHT22;10574;52.508;13.236;2023-09-19T13:10:17;21.00;95.20
20827;DHT22;10574;52.508;13.236;2023-09-19T13:12:47;21.00;95.00
20827;DHT22;10574;52.508;13.236;2023-09-19T13:15:17;21.00;94.30
20827;DHT22;10574;52.508;13.236;2023-09-19T13:17:53;21.00;95.60
20827;DHT22;10574;52.508;13.236;2023-09-19T13:20:25;21.00;94.50
20827;DHT22;10574;52.508;13.236;2023-09-19T13:22:56;21.10;94.60
20827;DHT22;10574;52.508;13.236;2023-09-19T13:25:29;21.10;95.20
20827;DHT22;10574;52.508;13.236;2023-09-19T13:27:58;21.10;94.20
20827;DHT22;10574;52.508;13.236;2023-09-19T13:30:27;21.10;95.00
20827;DHT22;10574;52.508;13.236;2023-09-19T13:33:06;20.90;94.50
20827;DHT22;10574;52.508;13.236;2023-09-19T13:35:34;20.80;94.40
20827;DHT22;10574;52.508;13.236;2023-09-19T13:38:04;20.80;94.70
20827;DHT22;10574;52.508;13.236;2023-09-19T13:40:33;20.70;95.10
20827;DHT22;10574;52.508;13.236;2023-09-19T13:43:05;20.60;94.90
20827;DHT22;10574;52.508;13.236;2023-09-19T13:45:33;20.60;95.10
20827;DHT22;10574;52.508;13.236;2023-09-19T13:48:01;20.60;95.70
20827;DHT22;10574;52.508;13.236;2023-09-19T13:50:29;20.70;95.60
20827;DHT22;10574;52.508;13.236;2023-09-19T13:53:00;20.70;94.60
20827;DHT22;10574;52.508;13.236;2023-09-19T13:55:29;20.80;94.60
20827;DHT22;10574;52.508;13.236;2023-09-19T13:58:02;20.70;95.40
20827;DHT22;10574;52.508;13.236;2023-09-19T14:00:28;20.70;95.20
20827;DHT22;10574;52.508;13.236;2023-09-19T14:02:56;20.80;95.20
20827;DHT22;10574;52.508;13.236;2023-09-19T14:05:24;21.00;95.30
20827;DHT22;10574;52.508;13.236;2023-09-19T14:07:53;21.10;95.60
20827;DHT22;10574;52.508;13.236;2023-09-19T14:10:31;21.10;94.20
20827;DHT22;10574;52.508;13.236;2023-09-19T14:12:57;21.10;94.60
20827;DHT22;10574;52.508;13.236;2023-09-19T14:15:29;21.10;95.00
20827;DHT22;10574;52.508;13.236;2023-09-19T14:18:00;21.20;95.00
20827;DHT22;10574;52.508;13.236;2023-09-19T14:20:28;21.20;95.40
20827;DHT22;10574;52.508;13.236;2023-09-19T14:22:59;21.20;96.20
20827;DHT22;10574;52.508;13.236;2023-09-19T14:25:33;21.20;95.70
20827;DHT22;10574;52.508;13.236;2023-09-19T14:27:57;21.20;94.50
20827;DHT22;10574;52.508;13.236;2023-09-19T14:30:25;21.10;94.90
20827;DHT22;10574;52.508;13.236;2023-09-19T14:32:54;21.10;96.20
20827;DHT22;10574;52.508;13.236;2023-09-19T14:35:22;21.10;96.30
20827;DHT22;10574;52.508;13.236;2023-09-19T14:37:49;21.10;96.10
20827;DHT22;10574;52.508;13.236;2023-09-19T14:40:17;21.20;95.70
20827;DHT22;10574;52.508;13.236;2023-09-19T14:42:45;21.10;95.20
20827;DHT22;10574;52.508;13.236;2023-09-19T14:45:13;21.10;96.30
20827;DHT22;10574;52.508;13.236;2023-09-19T14:47:42;20.90;96.30
20827;DHT22;10574;52.508;13.236;2023-09-19T14:50:10;20.90;96.10
20827;DHT22;10574;52.508;13.236;2023-09-19T14:52:39;21.00;97.00
20827;DHT22;10574;52.508;13.236;2023-09-19T14:55:07;21.00;96.50
20827;DHT22;10574;52.508;13.236;2023-09-19T14:57:36;21.10;95.30
20827;DHT22;10574;52.508;13.236;2023-09-19T15:00:06;20.90;94.80
20827;DHT22;10574;52.508;13.236;2023-09-19T15:02:36;20.90;96.50
20827;DHT22;10574;52.508;13.236;2023-09-19T15:05:04;20.90;95.90
20827;DHT22;10574;52.508;13.236;2023-09-19T15:07:36;20.80;95.60
20827;DHT22;10574;52.508;13.236;2023-09-19T15:10:05;20.80;95.80
20827;DHT22;10574;52.508;13.236;2023-09-19T15:12:35;20.80;95.90
20827;DHT22;10574;52.508;13.236;2023-09-19T15:15:05;20.70;96.40
20827;DHT22;10574;52.508;13.236;2023-09-19T15:17:36;20.60;96.70
20827;DHT22;10574;52.508;13.236;2023-09-19T15:20:04;20.60;96.50
20827;DHT22;10574;52.508;13.236;2023-09-19T15:22:33;20.50;96.10
20827;DHT22;10574;52.508;13.236;2023-09-19T15:25:02;20.50;96.50
20827;DHT22;10574;52.508;13.236;2023-09-19T15:27:30;20.50;96.60
20827;DHT22;10574;52.508;13.236;2023-09-19T15:30:02;20.50;97.20
20827;DHT22;10574;52.508;13.236;2023-09-19T15:32:31;20.50;96.30
20827;DHT22;10574;52.508;13.236;2023-09-19T15:34:59;20.50;96.60
20827;DHT22;10574;52.508;13.236;2023-09-19T15:37:27;20.50;96.80
20827;DHT22;10574;52.508;13.236;2023-09-19T15:39:55;20.60;97.40
20827;DHT22;10574;52.508;13.236;2023-09-19T15:42:22;20.60;97.00
20827;DHT22;10574;52.508;13.236;2023-09-19T15:44:50;20.60;96.80
20827;DHT22;10574;52.508;13.236;2023-09-19T15:47:18;20.50;96.70
20827;DHT22;10574;52.508;13.236;2023-09-19T15:49:47;20.50;96.40
20827;DHT22;10574;52.508;13.236;2023-09-19T15:52:17;20.50;96.90
20827;DHT22;10574;52.508;13.236;2023-09-19T15:54:45;20.50;95.80
20827;DHT22;10574;52.508;13.236;2023-09-19T15:57:13;20.40;97.40
20827;DHT22;10574;52.508;13.236;2023-09-19T15:59:40;20.40;97.00
20827;DHT22;10574;52.508;13.236;2023-09-19T16:02:08;20.50;97.50
20827;DHT22;10574;52.508;13.236;2023-09-19T16:04:36;20.40;97.40
20827;DHT22;10574;52.508;13.236;2023-09-19T16:07:05;20.40;96.90
20827;DHT22;10574;52.508;13.236;2023-09-19T16:09:34;20.30;97.90
20827;DHT22;10574;52.508;13.236;2023-09-19T16:12:02;20.20;97.50
20827;DHT22;10574;52.508;13.236;2023-09-19T16:14:30;20.20;97.50
20827;DHT22;10574;52.508;13.236;2023-09-19T16:16:57;20.20;97.50
20827;DHT22;10574;52.508;13.236;2023-09-19T16:19:26;20.20;97.20
20827;DHT22;10574;52.508;13.236;2023-09-19T16:21:54;20.20;97.40
20827;DHT22;10574;52.508;13.236;2023-09-19T16:24:23;20.20;98.30
20827;DHT22;10574;52.508;13.236;2023-09-19T16:26:52;20.10;98.40
20827;DHT22;10574;52.508;13.236;2023-09-19T16:29:20;20.10;98.10